createdAt,value
2018-08-18T00:00:01.940Z,85.34
2018-08-18T00:01:01.864Z,84.95
2018-08-18T00:02:01.802Z,84.86
2018-08-18T00:03:01.714Z,85.43
2018-08-18T00:04:01.639Z,84.95
2018-08-18T00:05:01.564Z,85.82
2018-08-18T00:06:01.477Z,85.34
2018-08-18T00:07:01.403Z,85.53
2018-08-18T00:08:01.327Z,85.63
2018-08-18T00:09:01.240Z,85.34
2018-08-18T00:10:01.165Z,85.24
2018-08-18T00:11:01.091Z,86.59
2018-08-18T00:12:01.016Z,86.59
2018-08-18T00:13:00.929Z,86.40
2018-08-18T00:14:00.853Z,86.30
2018-08-18T00:15:00.785Z,86.59
2018-08-18T00:16:00.703Z,86.21
2018-08-18T00:17:00.618Z,86.21
2018-08-18T00:18:00.543Z,86.30
2018-08-18T00:19:00.467Z,86.59
2018-08-18T00:20:00.391Z,86.78
2018-08-18T00:21:00.316Z,86.49
2018-08-18T00:22:00.230Z,86.69
2018-08-18T00:23:00.155Z,87.26
2018-08-18T00:24:00.080Z,87.17
2018-08-18T00:25:00.004Z,86.74
2018-08-18T00:25:59.919Z,86.98
2018-08-18T00:26:59.841Z,87.26
2018-08-18T00:27:59.779Z,86.69
2018-08-18T00:28:59.692Z,86.78
2018-08-18T00:29:59.621Z,86.69
2018-08-18T00:30:59.541Z,86.49
2018-08-18T00:31:59.456Z,86.98
2018-08-18T00:32:59.381Z,86.78
2018-08-18T00:33:59.305Z,86.69
2018-08-18T00:34:59.218Z,86.59
2018-08-18T00:35:59.142Z,86.78
2018-08-18T00:36:59.068Z,86.49
2018-08-18T00:37:58.993Z,86.59
2018-08-18T00:38:58.920Z,86.78
2018-08-18T00:39:58.831Z,86.88
2018-08-18T00:40:58.763Z,86.88
2018-08-18T00:41:58.682Z,87.17
2018-08-18T00:42:58.606Z,86.93
2018-08-18T00:43:58.519Z,86.93
2018-08-18T00:44:58.443Z,86.88
2018-08-18T00:45:58.368Z,87.03
2018-08-18T00:46:58.293Z,86.74
2018-08-18T00:47:58.219Z,86.69
2018-08-18T00:48:58.132Z,87.03
2018-08-18T00:49:58.057Z,87.03
2018-08-18T00:50:57.982Z,87.12
2018-08-18T00:51:57.908Z,87.60
2018-08-18T00:52:57.821Z,87.70
2018-08-18T00:53:57.744Z,87.51
2018-08-18T00:54:57.670Z,87.60
2018-08-18T00:55:57.594Z,87.90
2018-08-18T00:56:57.509Z,88.28
2018-08-18T00:57:57.432Z,87.95
2018-08-18T00:58:57.363Z,87.95
2018-08-18T00:59:57.282Z,88.14
2018-08-18T01:00:57.196Z,88.04
2018-08-18T01:01:57.120Z,88.04
2018-08-18T01:02:57.045Z,88.33
2018-08-18T01:03:56.970Z,88.14
2018-08-18T01:04:56.895Z,88.14
2018-08-18T01:05:56.808Z,88.24
2018-08-18T01:06:56.737Z,88.24
2018-08-18T01:07:56.661Z,88.33
2018-08-18T01:08:56.584Z,88.53
2018-08-18T01:09:56.496Z,88.53
2018-08-18T01:10:56.518Z,88.62
2018-08-18T01:11:56.432Z,88.24
2018-08-18T01:12:56.298Z,88.33
2018-08-18T01:13:56.240Z,88.24
2018-08-18T01:14:56.168Z,88.62
2018-08-18T01:15:56.035Z,88.91
2018-08-18T01:16:55.963Z,88.53
2018-08-18T01:17:55.873Z,88.71
2018-08-18T01:18:55.796Z,88.43
2018-08-18T01:19:55.736Z,88.43
2018-08-18T01:20:55.647Z,88.43
2018-08-18T01:21:55.566Z,88.91
2018-08-18T01:22:55.486Z,88.81
2018-08-18T01:23:55.411Z,88.71
2018-08-18T01:24:55.335Z,88.53
2018-08-18T01:25:55.249Z,88.53
2018-08-18T01:26:55.179Z,88.33
2018-08-18T01:27:55.097Z,88.81
2018-08-18T01:28:55.037Z,88.53
2018-08-18T01:29:54.948Z,88.28
2018-08-18T01:30:54.869Z,88.18
2018-08-18T01:31:54.786Z,88.85
2018-08-18T01:32:54.712Z,87.99
2018-08-18T01:33:54.638Z,88.47
2018-08-18T01:34:54.548Z,88.18
2018-08-18T01:35:54.474Z,88.18
2018-08-18T01:36:54.398Z,88.09
2018-08-18T01:37:54.323Z,88.28
2018-08-18T01:38:54.238Z,88.28
2018-08-18T01:39:54.162Z,88.09
2018-08-18T01:40:54.088Z,88.28
2018-08-18T01:41:54.015Z,88.09
2018-08-18T01:42:53.928Z,88.18
2018-08-18T01:43:53.927Z,88.18
2018-08-18T01:44:53.776Z,88.57
2018-08-18T01:45:53.700Z,88.57
2018-08-18T01:46:53.615Z,87.99
2018-08-18T01:47:53.538Z,88.28
2018-08-18T01:48:53.467Z,88.57
2018-08-18T01:49:53.388Z,88.09
2018-08-18T01:50:53.302Z,88.09
2018-08-18T01:51:53.230Z,88.38
2018-08-18T01:52:53.150Z,88.09
2018-08-18T01:53:53.076Z,88.28
2018-08-18T01:54:53.001Z,87.99
2018-08-18T01:55:52.916Z,88.09
2018-08-18T01:56:52.843Z,87.99
2018-08-18T01:57:52.764Z,88.18
2018-08-18T01:58:52.690Z,87.99
2018-08-18T01:59:52.602Z,88.47
2018-08-18T02:00:52.526Z,88.09
2018-08-18T02:01:52.453Z,88.38
2018-08-18T02:02:52.377Z,88.47
2018-08-18T02:03:52.292Z,88.47
2018-08-18T02:04:52.215Z,88.81
2018-08-18T02:05:52.142Z,88.71
2018-08-18T02:06:52.065Z,88.81
2018-08-18T02:07:51.981Z,88.91
2018-08-18T02:08:51.903Z,88.33
2018-08-18T02:09:51.829Z,88.43
2018-08-18T02:10:51.752Z,88.62
2018-08-18T02:11:51.690Z,88.43
2018-08-18T02:12:51.591Z,88.62
2018-08-18T02:13:51.520Z,89.29
2018-08-18T02:14:51.441Z,88.91
2018-08-18T02:15:51.366Z,89.01
2018-08-18T02:16:51.279Z,89.20
2018-08-18T02:17:51.214Z,89.49
2018-08-18T02:18:51.128Z,89.10
2018-08-18T02:19:51.090Z,89.10
2018-08-18T02:20:50.967Z,89.20
2018-08-18T02:21:50.893Z,88.81
2018-08-18T02:22:50.818Z,89.01
2018-08-18T02:23:50.743Z,89.10
2018-08-18T02:24:50.656Z,88.71
2018-08-18T02:25:50.580Z,89.39
2018-08-18T02:26:50.510Z,88.71
2018-08-18T02:27:50.442Z,89.29
2018-08-18T02:28:50.343Z,89.20
2018-08-18T02:29:50.268Z,89.29
2018-08-18T02:30:50.196Z,89.01
2018-08-18T02:31:50.119Z,89.01
2018-08-18T02:32:50.030Z,89.01
2018-08-18T02:33:49.957Z,89.15
2018-08-18T02:34:49.880Z,88.77
2018-08-18T02:35:49.806Z,88.87
2018-08-18T02:36:49.721Z,88.96
2018-08-18T02:37:49.644Z,88.96
2018-08-18T02:38:49.569Z,88.87
2018-08-18T02:39:49.484Z,88.77
2018-08-18T02:40:49.406Z,89.25
2018-08-18T02:41:49.331Z,89.64
2018-08-18T02:42:49.256Z,89.44
2018-08-18T02:43:49.170Z,89.73
2018-08-18T02:44:49.095Z,89.73
2018-08-18T02:45:49.020Z,89.25
2018-08-18T02:46:48.946Z,89.44
2018-08-18T02:47:48.870Z,89.35
2018-08-18T02:48:48.782Z,89.35
2018-08-18T02:49:48.707Z,89.54
2018-08-18T02:50:48.622Z,89.92
2018-08-18T02:51:48.549Z,89.64
2018-08-18T02:52:48.470Z,89.64
2018-08-18T02:53:48.395Z,89.40
2018-08-18T02:54:48.308Z,89.50
2018-08-18T02:55:48.232Z,89.50
2018-08-18T02:56:48.158Z,89.59
2018-08-18T02:57:48.084Z,89.40
2018-08-18T02:58:47.997Z,89.69
2018-08-18T02:59:47.923Z,89.78
2018-08-18T03:00:47.858Z,89.78
2018-08-18T03:01:47.762Z,89.98
2018-08-18T03:02:47.683Z,89.88
2018-08-18T03:03:47.622Z,89.35
2018-08-18T03:04:47.534Z,89.69
2018-08-18T03:05:47.448Z,90.02
2018-08-18T03:06:47.372Z,89.44
2018-08-18T03:07:47.350Z,89.92
2018-08-18T03:08:47.210Z,90.02
2018-08-18T03:09:47.136Z,89.35
2018-08-18T03:10:47.060Z,89.54
2018-08-18T03:11:46.984Z,89.54
2018-08-18T03:12:46.898Z,89.73
2018-08-18T03:13:46.824Z,89.54
2018-08-18T03:14:46.754Z,89.64
2018-08-18T03:15:46.661Z,89.54
2018-08-18T03:16:46.585Z,89.69
2018-08-18T03:17:46.511Z,89.73
2018-08-18T03:18:46.438Z,89.30
2018-08-18T03:19:46.348Z,89.30
2018-08-18T03:20:46.274Z,89.40
2018-08-18T03:21:46.199Z,89.59
2018-08-18T03:22:46.112Z,89.69
2018-08-18T03:23:46.036Z,89.88
2018-08-18T03:24:45.961Z,89.78
2018-08-18T03:25:45.888Z,89.50
2018-08-18T03:26:45.803Z,89.59
2018-08-18T03:27:45.725Z,89.88
2018-08-18T03:28:45.656Z,89.83
2018-08-18T03:29:45.561Z,89.40
2018-08-18T03:30:45.490Z,89.54
2018-08-18T03:31:45.412Z,89.54
2018-08-18T03:32:45.325Z,89.35
2018-08-18T03:33:45.250Z,89.64
2018-08-18T03:34:45.175Z,89.73
2018-08-18T03:35:45.103Z,89.54
2018-08-18T03:36:45.012Z,89.73
2018-08-18T03:37:44.939Z,89.54
2018-08-18T03:38:44.862Z,89.73
2018-08-18T03:39:44.787Z,89.54
2018-08-18T03:40:44.704Z,89.64
2018-08-18T03:41:44.630Z,89.73
2018-08-18T03:42:44.556Z,89.35
2018-08-18T03:43:44.464Z,89.88
2018-08-18T03:44:44.387Z,89.78
2018-08-18T03:45:44.312Z,89.50
2018-08-18T03:46:44.227Z,89.64
2018-08-18T03:47:44.151Z,89.83
2018-08-18T03:48:44.077Z,89.92
2018-08-18T03:49:44.001Z,89.83
2018-08-18T03:50:43.915Z,89.83
2018-08-18T03:51:43.838Z,89.25
2018-08-18T03:52:43.764Z,89.73
2018-08-18T03:53:43.680Z,89.73
2018-08-18T03:54:43.602Z,89.92
2018-08-18T03:55:43.534Z,89.64
2018-08-18T03:56:43.452Z,89.83
2018-08-18T03:57:43.364Z,89.83
2018-08-18T03:58:43.302Z,89.83
2018-08-18T03:59:43.214Z,89.83
2018-08-18T04:00:43.129Z,89.44
2018-08-18T04:01:43.141Z,89.44
2018-08-18T04:02:42.980Z,89.64
2018-08-18T04:03:42.909Z,89.83
2018-08-18T04:04:42.816Z,89.92
2018-08-18T04:05:42.740Z,89.83
2018-08-18T04:06:42.665Z,89.73
2018-08-18T04:07:42.591Z,89.64
2018-08-18T04:08:42.506Z,89.64
2018-08-18T04:09:42.431Z,89.64
2018-08-18T04:10:42.353Z,89.64
2018-08-18T04:11:42.266Z,89.54
2018-08-18T04:12:42.191Z,89.92
2018-08-18T04:13:42.116Z,89.73
2018-08-18T04:14:42.029Z,90.02
2018-08-18T04:15:41.955Z,89.83
2018-08-18T04:16:41.880Z,89.69
2018-08-18T04:17:41.792Z,89.92
2018-08-18T04:18:41.730Z,90.17
2018-08-18T04:19:41.642Z,89.98
2018-08-18T04:20:41.566Z,90.36
2018-08-18T04:21:41.480Z,89.88
2018-08-18T04:22:41.405Z,90.36
2018-08-18T04:23:41.331Z,89.88
2018-08-18T04:24:41.242Z,89.88
2018-08-18T04:25:41.168Z,90.55
2018-08-18T04:26:41.092Z,90.55
2018-08-18T04:27:41.024Z,90.26
2018-08-18T04:28:40.934Z,90.17
2018-08-18T04:29:40.856Z,90.45
2018-08-18T04:30:40.782Z,90.36
2018-08-18T04:31:40.693Z,90.21
2018-08-18T04:32:40.620Z,90.12
2018-08-18T04:33:40.543Z,90.21
2018-08-18T04:34:40.456Z,90.50
2018-08-18T04:35:40.382Z,90.31
2018-08-18T04:36:40.307Z,90.21
2018-08-18T04:37:40.232Z,90.31
2018-08-18T04:38:40.143Z,89.92
2018-08-18T04:39:40.069Z,89.83
2018-08-18T04:40:39.994Z,90.02
2018-08-18T04:41:39.909Z,90.31
2018-08-18T04:42:39.832Z,89.92
2018-08-18T04:43:39.779Z,90.31
2018-08-18T04:44:39.669Z,90.02
2018-08-18T04:45:39.594Z,89.73
2018-08-18T04:46:39.521Z,90.02
2018-08-18T04:47:39.445Z,89.87
2018-08-18T04:48:39.358Z,89.68
2018-08-18T04:49:39.284Z,89.68
2018-08-18T04:50:39.244Z,89.44
2018-08-18T04:51:39.121Z,89.92
2018-08-18T04:52:39.045Z,89.92
2018-08-18T04:53:38.971Z,90.31
2018-08-18T04:54:38.899Z,90.12
2018-08-18T04:55:38.816Z,90.21
2018-08-18T04:56:38.740Z,90.12
2018-08-18T04:57:38.659Z,90.50
2018-08-18T04:58:38.585Z,90.21
2018-08-18T04:59:38.496Z,90.21
2018-08-18T05:00:38.422Z,90.12
2018-08-18T05:01:38.346Z,90.21
2018-08-18T05:02:38.260Z,90.41
2018-08-18T05:03:38.185Z,90.21
2018-08-18T05:04:38.111Z,90.41
2018-08-18T05:05:38.023Z,90.12
2018-08-18T05:06:37.947Z,90.41
2018-08-18T05:07:37.872Z,90.21
2018-08-18T05:08:37.797Z,90.41
2018-08-18T05:09:37.711Z,90.21
2018-08-18T05:10:37.635Z,90.31
2018-08-18T05:11:37.612Z,89.92
2018-08-18T05:12:37.475Z,90.21
2018-08-18T05:13:37.412Z,90.41
2018-08-18T05:14:37.322Z,90.41
2018-08-18T05:15:37.248Z,90.41
2018-08-18T05:16:37.161Z,89.54
2018-08-18T05:17:37.086Z,90.31
2018-08-18T05:18:37.011Z,89.83
2018-08-18T05:19:36.937Z,90.31
2018-08-18T05:20:36.851Z,89.73
2018-08-18T05:21:36.773Z,89.97
2018-08-18T05:22:36.701Z,89.73
2018-08-18T05:23:36.624Z,89.83
2018-08-18T05:24:36.538Z,90.06
2018-08-18T05:25:36.461Z,89.73
2018-08-18T05:26:36.390Z,90.02
2018-08-18T05:27:36.300Z,90.06
2018-08-18T05:28:36.225Z,90.16
2018-08-18T05:29:36.153Z,90.16
2018-08-18T05:30:36.074Z,90.16
2018-08-18T05:31:35.989Z,89.97
2018-08-18T05:32:35.914Z,89.87
2018-08-18T05:33:35.839Z,89.87
2018-08-18T05:34:35.764Z,89.49
2018-08-18T05:35:35.675Z,89.78
2018-08-18T05:36:35.621Z,90.06
2018-08-18T05:37:35.525Z,89.68
2018-08-18T05:38:35.440Z,89.97
2018-08-18T05:39:35.363Z,89.49
2018-08-18T05:40:35.290Z,89.29
2018-08-18T05:41:35.214Z,89.97
2018-08-18T05:42:35.128Z,89.39
2018-08-18T05:43:35.067Z,89.87
2018-08-18T05:44:34.976Z,89.68
2018-08-18T05:45:34.901Z,88.62
2018-08-18T05:46:34.815Z,89.78
2018-08-18T05:47:34.786Z,89.68
2018-08-18T05:48:34.665Z,89.01
2018-08-18T05:49:34.578Z,89.58
2018-08-18T05:50:34.521Z,89.20
2018-08-18T05:51:34.426Z,89.39
2018-08-18T05:52:34.365Z,89.58
2018-08-18T05:53:34.265Z,89.58
2018-08-18T05:54:34.191Z,89.87
2018-08-18T05:55:34.114Z,89.87
2018-08-18T05:56:34.041Z,89.58
2018-08-18T05:57:33.953Z,89.87
2018-08-18T05:58:33.877Z,89.68
2018-08-18T05:59:33.822Z,89.78
2018-08-18T06:00:33.728Z,88.91
2018-08-18T06:01:33.645Z,88.91
2018-08-18T06:02:33.566Z,89.29
2018-08-18T06:03:33.492Z,88.91
2018-08-18T06:04:33.406Z,89.10
2018-08-18T06:05:33.357Z,89.29
2018-08-18T06:06:33.253Z,88.81
2018-08-18T06:07:33.191Z,89.43
2018-08-18T06:08:33.094Z,89.01
2018-08-18T06:09:33.016Z,89.20
2018-08-18T06:10:32.944Z,88.67
2018-08-18T06:11:32.867Z,89.24
2018-08-18T06:12:32.792Z,89.15
2018-08-18T06:13:32.704Z,89.34
2018-08-18T06:14:32.628Z,88.81
2018-08-18T06:15:32.554Z,89.24
2018-08-18T06:16:32.468Z,89.01
2018-08-18T06:17:32.393Z,88.14
2018-08-18T06:18:32.318Z,88.57
2018-08-18T06:19:32.243Z,88.57
2018-08-18T06:20:32.156Z,88.24
2018-08-18T06:21:32.080Z,88.47
2018-08-18T06:22:32.004Z,87.99
2018-08-18T06:23:31.943Z,88.28
2018-08-18T06:24:31.843Z,88.28
2018-08-18T06:25:31.773Z,87.60
2018-08-18T06:26:31.698Z,87.90
2018-08-18T06:27:31.619Z,87.90
2018-08-18T06:28:31.532Z,88.09
2018-08-18T06:29:31.456Z,87.32
2018-08-18T06:30:31.383Z,87.36
2018-08-18T06:31:31.306Z,87.94
2018-08-18T06:32:31.231Z,87.84
2018-08-18T06:33:31.144Z,87.55
2018-08-18T06:34:31.079Z,87.65
2018-08-18T06:35:30.997Z,87.46
2018-08-18T06:36:30.922Z,87.26
2018-08-18T06:37:30.833Z,87.94
2018-08-18T06:38:30.793Z,86.88
2018-08-18T06:39:30.682Z,87.21
2018-08-18T06:40:30.607Z,86.73
2018-08-18T06:41:30.593Z,86.54
2018-08-18T06:42:30.447Z,86.73
2018-08-18T06:43:30.371Z,86.44
2018-08-18T06:44:30.295Z,86.73
2018-08-18T06:45:30.208Z,85.96
2018-08-18T06:46:30.135Z,85.77
2018-08-18T06:47:30.059Z,85.77
2018-08-18T06:48:29.983Z,85.86
2018-08-18T06:49:29.909Z,85.09
2018-08-18T06:50:29.832Z,85.09
2018-08-18T06:51:29.748Z,85.13
2018-08-18T06:52:29.671Z,85.23
2018-08-18T06:53:29.597Z,84.36
2018-08-18T06:54:29.606Z,83.59
2018-08-18T06:55:29.434Z,82.62
2018-08-18T06:56:29.371Z,83.15
2018-08-18T06:57:29.283Z,82.38
2018-08-18T06:58:29.221Z,82.67
2018-08-18T06:59:29.133Z,82.67
2018-08-18T07:00:29.047Z,81.80
2018-08-18T07:01:28.973Z,81.12
2018-08-18T07:02:28.898Z,80.83
2018-08-18T07:03:28.824Z,81.32
2018-08-18T07:04:28.748Z,81.32
2018-08-18T07:05:28.673Z,81.60
2018-08-18T07:06:28.585Z,81.41
2018-08-18T07:07:28.511Z,80.16
2018-08-18T07:08:28.436Z,80.51
2018-08-18T07:09:28.372Z,80.54
2018-08-18T07:10:28.285Z,80.16
2018-08-18T07:11:28.210Z,80.54
2018-08-18T07:12:28.124Z,79.81
2018-08-18T07:13:28.049Z,79.43
2018-08-18T07:14:27.975Z,79.81
2018-08-18T07:15:27.900Z,80.10
2018-08-18T07:16:27.824Z,78.66
2018-08-18T07:17:27.749Z,79.81
2018-08-18T07:18:27.675Z,80.39
2018-08-18T07:19:27.698Z,78.66
2018-08-18T07:20:27.511Z,78.41
2018-08-18T07:21:27.436Z,78.02
2018-08-18T07:22:27.363Z,77.63
2018-08-18T07:23:27.287Z,78.21
2018-08-18T07:24:27.226Z,77.38
2018-08-18T07:25:27.137Z,76.61
2018-08-18T07:26:27.062Z,75.68
2018-08-18T07:27:26.989Z,75.00
2018-08-18T07:28:26.937Z,74.23
2018-08-18T07:29:26.827Z,73.26
2018-08-18T07:30:26.774Z,72.24
2018-08-18T07:31:26.678Z,71.36
2018-08-18T07:32:26.601Z,72.10
2018-08-18T07:33:26.526Z,71.81
2018-08-18T07:34:26.457Z,72.00
2018-08-18T07:35:26.376Z,71.42
2018-08-18T07:36:26.301Z,70.20
2018-08-18T07:37:26.266Z,69.72
2018-08-18T07:38:26.152Z,70.14
2018-08-18T07:39:26.077Z,69.27
2018-08-18T07:40:26.002Z,69.62
2018-08-18T07:41:25.926Z,69.85
2018-08-18T07:42:25.852Z,69.66
2018-08-18T07:43:25.776Z,68.59
2018-08-18T07:44:25.702Z,68.69
2018-08-18T07:45:25.626Z,68.73
2018-08-18T07:46:25.620Z,68.27
2018-08-18T07:47:25.479Z,67.76
2018-08-18T07:48:25.403Z,67.72
2018-08-18T07:49:25.362Z,68.11
2018-08-18T07:50:25.274Z,68.79
2018-08-18T07:51:25.191Z,69.46
2018-08-18T07:52:25.115Z,68.27
2018-08-18T07:53:25.052Z,67.21
2018-08-18T07:54:24.979Z,65.50
2018-08-18T07:55:24.891Z,63.40
2018-08-18T07:56:24.815Z,62.33
2018-08-18T07:57:24.741Z,62.75
2018-08-18T07:58:24.666Z,63.62
2018-08-18T07:59:24.603Z,63.65
2018-08-18T08:00:24.530Z,62.46
2018-08-18T08:01:24.453Z,61.52
2018-08-18T08:02:24.379Z,61.19
2018-08-18T08:03:24.304Z,62.43
2018-08-18T08:04:24.232Z,62.65
2018-08-18T08:05:24.168Z,62.13
2018-08-18T08:06:24.106Z,61.46
2018-08-18T08:07:24.017Z,62.01
2018-08-18T08:08:23.941Z,62.98
2018-08-18T08:09:23.868Z,64.11
2018-08-18T08:10:23.805Z,65.24
2018-08-18T08:11:23.736Z,64.89
2018-08-18T08:12:23.689Z,67.82
2018-08-18T08:13:23.581Z,68.72
2018-08-18T08:14:23.517Z,67.56
2018-08-18T08:15:23.442Z,66.24
2018-08-18T08:16:23.368Z,66.72
2018-08-18T08:17:23.306Z,67.40
2018-08-18T08:18:23.305Z,68.17
2018-08-18T08:19:23.161Z,67.11
2018-08-18T08:20:23.083Z,66.53
2018-08-18T08:21:23.006Z,67.75
2018-08-18T08:22:22.931Z,66.82
2018-08-18T08:23:22.856Z,67.79
2018-08-18T08:24:22.782Z,66.82
2018-08-18T08:25:22.708Z,66.91
2018-08-18T08:26:22.643Z,66.37
2018-08-18T08:27:22.569Z,66.66
2018-08-18T08:28:22.495Z,66.85
2018-08-18T08:29:22.418Z,66.37
2018-08-18T08:30:22.344Z,67.05
2018-08-18T08:31:22.271Z,67.05
2018-08-18T08:32:22.195Z,67.14
2018-08-18T08:33:22.121Z,67.01
2018-08-18T08:34:22.059Z,67.69
2018-08-18T08:35:21.983Z,67.30
2018-08-18T08:36:21.907Z,66.30
2018-08-18T08:37:21.833Z,67.94
2018-08-18T08:38:21.761Z,68.78
2018-08-18T08:39:21.695Z,69.26
2018-08-18T08:40:21.608Z,70.90
2018-08-18T08:41:21.533Z,71.00
2018-08-18T08:42:21.458Z,69.46
2018-08-18T08:43:21.443Z,69.59
2018-08-18T08:44:21.321Z,68.91
2018-08-18T08:45:21.245Z,68.43
2018-08-18T08:46:21.170Z,67.98
2018-08-18T08:47:21.095Z,67.69
2018-08-18T08:48:21.021Z,67.98
2018-08-18T08:49:20.946Z,67.98
2018-08-18T08:50:20.884Z,67.69
2018-08-18T08:51:20.796Z,68.37
2018-08-18T08:52:20.721Z,67.85
2018-08-18T08:53:20.646Z,68.43
2018-08-18T08:54:20.572Z,68.37
2018-08-18T08:55:20.496Z,67.49
2018-08-18T08:56:20.422Z,68.27
2018-08-18T08:57:20.346Z,67.69
2018-08-18T08:58:20.272Z,66.72
2018-08-18T08:59:20.197Z,67.63
2018-08-18T09:00:20.125Z,65.30
2018-08-18T09:01:20.049Z,65.20
2018-08-18T09:02:19.985Z,65.40
2018-08-18T09:03:19.911Z,64.82
2018-08-18T09:04:19.836Z,64.04
2018-08-18T09:05:19.761Z,64.75
2018-08-18T09:06:19.689Z,64.11
2018-08-18T09:07:19.612Z,63.04
2018-08-18T09:08:19.536Z,61.88
2018-08-18T09:09:19.473Z,61.59
2018-08-18T09:10:19.447Z,62.56
2018-08-18T09:11:19.311Z,59.88
2018-08-18T09:12:19.237Z,58.06
2018-08-18T09:13:19.173Z,57.34
2018-08-18T09:14:19.112Z,55.43
2018-08-18T09:15:19.029Z,54.58
2018-08-18T09:16:18.949Z,55.92
2018-08-18T09:17:18.874Z,56.57
2018-08-18T09:18:18.800Z,57.42
2018-08-18T09:19:18.737Z,58.06
2018-08-18T09:20:18.665Z,58.52
2018-08-18T09:21:18.588Z,58.81
2018-08-18T09:22:18.513Z,58.33
2018-08-18T09:23:18.439Z,59.46
2018-08-18T09:24:18.375Z,59.75
2018-08-18T09:25:18.300Z,58.69
2018-08-18T09:26:18.243Z,59.36
2018-08-18T09:27:18.163Z,59.27
2018-08-18T09:28:18.092Z,59.91
2018-08-18T09:29:18.013Z,59.76
2018-08-18T09:30:17.939Z,61.60
2018-08-18T09:31:17.864Z,63.34
2018-08-18T09:32:17.789Z,63.05
2018-08-18T09:33:17.726Z,62.56
2018-08-18T09:34:17.654Z,62.30
2018-08-18T09:35:17.576Z,62.59
2018-08-18T09:36:17.600Z,61.08
2018-08-18T09:37:17.429Z,61.18
2018-08-18T09:38:17.365Z,59.05
2018-08-18T09:39:17.294Z,59.63
2018-08-18T09:40:17.215Z,58.39
2018-08-18T09:41:17.141Z,58.37
2018-08-18T09:42:17.065Z,58.30
2018-08-18T09:43:17.002Z,57.17
2018-08-18T09:44:16.927Z,57.26
2018-08-18T09:45:16.886Z,57.19
2018-08-18T09:46:16.797Z,57.03
2018-08-18T09:47:16.706Z,55.77
2018-08-18T09:48:16.628Z,55.28
2018-08-18T09:49:16.566Z,54.53
2018-08-18T09:50:16.491Z,54.24
2018-08-18T09:51:16.417Z,54.27
2018-08-18T09:52:16.341Z,54.66
2018-08-18T09:53:16.266Z,54.46
2018-08-18T09:54:16.206Z,53.66
2018-08-18T09:55:16.143Z,55.02
2018-08-18T09:56:16.053Z,54.53
2018-08-18T09:57:15.979Z,54.72
2018-08-18T09:58:15.920Z,54.72
2018-08-18T09:59:15.850Z,53.73
2018-08-18T10:00:15.768Z,55.38
2018-08-18T10:01:15.692Z,55.38
2018-08-18T10:02:15.630Z,56.15
2018-08-18T10:03:15.556Z,55.67
2018-08-18T10:04:15.479Z,55.77
2018-08-18T10:05:15.405Z,55.87
2018-08-18T10:06:15.345Z,55.06
2018-08-18T10:07:15.270Z,56.41
2018-08-18T10:08:15.195Z,56.77
2018-08-18T10:09:15.131Z,57.75
2018-08-18T10:10:15.056Z,57.26
2018-08-18T10:11:14.981Z,57.07
2018-08-18T10:12:14.905Z,56.68
2018-08-18T10:13:14.844Z,57.00
2018-08-18T10:14:14.769Z,56.41
2018-08-18T10:15:14.713Z,56.97
2018-08-18T10:16:14.643Z,57.78
2018-08-18T10:17:14.556Z,55.74
2018-08-18T10:18:14.481Z,57.09
2018-08-18T10:19:14.408Z,55.93
2018-08-18T10:20:14.344Z,55.64
2018-08-18T10:21:14.272Z,55.77
2018-08-18T10:22:14.194Z,56.15
2018-08-18T10:23:14.148Z,55.69
2018-08-18T10:24:14.059Z,54.14
2018-08-18T10:25:13.981Z,52.47
2018-08-18T10:26:13.907Z,53.85
2018-08-18T10:27:13.860Z,54.28
2018-08-18T10:28:13.771Z,54.38
2018-08-18T10:29:13.696Z,54.58
2018-08-18T10:30:13.644Z,54.31
2018-08-18T10:31:13.559Z,53.24
2018-08-18T10:32:13.483Z,53.51
2018-08-18T10:33:13.413Z,53.63
2018-08-18T10:34:13.346Z,53.95
2018-08-18T10:35:13.270Z,53.39
2018-08-18T10:36:13.196Z,52.40
2018-08-18T10:37:13.132Z,52.01
2018-08-18T10:38:13.058Z,52.91
2018-08-18T10:39:12.983Z,53.00
2018-08-18T10:40:12.909Z,51.75
2018-08-18T10:41:12.846Z,51.06
2018-08-18T10:42:12.864Z,50.96
2018-08-18T10:43:12.697Z,50.87
2018-08-18T10:44:12.634Z,51.67
2018-08-18T10:45:12.571Z,51.57
2018-08-18T10:46:12.484Z,50.73
2018-08-18T10:47:12.422Z,49.07
2018-08-18T10:48:12.346Z,48.41
2018-08-18T10:49:12.271Z,48.41
2018-08-18T10:50:12.208Z,48.32
2018-08-18T10:51:12.134Z,48.10
2018-08-18T10:52:12.059Z,48.73
2018-08-18T10:53:11.998Z,49.82
2018-08-18T10:54:11.923Z,49.82
2018-08-18T10:55:11.855Z,49.27
2018-08-18T10:56:11.785Z,50.14
2018-08-18T10:57:11.723Z,50.46
2018-08-18T10:58:11.648Z,49.34
2018-08-18T10:59:11.574Z,48.00
2018-08-18T11:00:11.501Z,46.76
2018-08-18T11:01:11.435Z,45.15
2018-08-18T11:02:11.360Z,44.04
2018-08-18T11:03:11.299Z,43.20
2018-08-18T11:04:11.224Z,41.36
2018-08-18T11:05:11.161Z,40.90
2018-08-18T11:06:11.086Z,41.13
2018-08-18T11:07:11.025Z,41.36
2018-08-18T11:08:10.949Z,41.05
2018-08-18T11:09:10.887Z,39.76
2018-08-18T11:10:10.825Z,40.99
2018-08-18T11:11:10.750Z,43.99
2018-08-18T11:12:10.687Z,45.69
2018-08-18T11:13:10.612Z,48.20
2018-08-18T11:14:10.550Z,49.58
2018-08-18T11:15:10.487Z,49.90
2018-08-18T11:16:10.412Z,49.15
2018-08-18T11:17:10.349Z,48.10
2018-08-18T11:18:10.279Z,48.00
2018-08-18T11:19:10.212Z,46.96
2018-08-18T11:20:10.139Z,46.59
2018-08-18T11:21:10.076Z,47.39
2018-08-18T11:22:10.012Z,47.03
2018-08-18T11:23:09.937Z,46.39
2018-08-18T11:24:09.876Z,44.78
2018-08-18T11:25:09.801Z,43.24
2018-08-18T11:26:09.740Z,42.11
2018-08-18T11:27:09.677Z,40.58
2018-08-18T11:28:09.604Z,40.37
2018-08-18T11:29:09.539Z,40.27
2018-08-18T11:30:09.465Z,40.50
2018-08-18T11:31:09.405Z,40.33
2018-08-18T11:32:09.339Z,39.86
2018-08-18T11:33:09.277Z,39.49
2018-08-18T11:34:09.202Z,38.53
2018-08-18T11:35:09.180Z,38.51
2018-08-18T11:36:09.078Z,39.06
2018-08-18T11:37:09.004Z,39.49
2018-08-18T11:38:08.939Z,39.86
2018-08-18T11:39:08.880Z,42.75
2018-08-18T11:40:08.815Z,44.31
2018-08-18T11:41:08.741Z,44.24
2018-08-18T11:42:08.690Z,42.44
2018-08-18T11:43:08.628Z,41.23
2018-08-18T11:44:08.553Z,41.15
2018-08-18T11:45:08.490Z,40.97
2018-08-18T11:46:08.429Z,40.27
2018-08-18T11:47:08.429Z,40.72
2018-08-18T11:48:08.290Z,39.15
2018-08-18T11:49:08.230Z,39.37
2018-08-18T11:50:08.154Z,39.07
2018-08-18T11:51:08.091Z,39.35
2018-08-18T11:52:08.030Z,40.41
2018-08-18T11:53:07.966Z,39.54
2018-08-18T11:54:07.892Z,39.59
2018-08-18T11:55:07.830Z,38.33
2018-08-18T11:56:07.766Z,37.46
2018-08-18T11:57:07.705Z,37.61
2018-08-18T11:58:07.642Z,40.64
2018-08-18T11:59:07.567Z,41.17
2018-08-18T12:00:07.512Z,40.70
2018-08-18T12:01:07.484Z,39.62
2018-08-18T12:02:07.489Z,39.54
2018-08-18T12:03:07.320Z,38.98
2018-08-18T12:04:07.243Z,39.49
2018-08-18T12:05:07.180Z,40.60
2018-08-18T12:06:07.121Z,40.58
2018-08-18T12:07:07.056Z,40.95
2018-08-18T12:08:06.981Z,40.97
2018-08-18T12:09:06.918Z,41.00
2018-08-18T12:10:06.857Z,40.60
2018-08-18T12:11:06.831Z,39.94
2018-08-18T12:12:06.732Z,39.96
2018-08-18T12:13:06.658Z,39.76
2018-08-18T12:14:06.593Z,38.70
2018-08-18T12:15:06.532Z,38.02
2018-08-18T12:16:06.468Z,37.74
2018-08-18T12:17:06.407Z,38.41
2018-08-18T12:18:06.331Z,39.62
2018-08-18T12:19:06.268Z,40.72
2018-08-18T12:20:06.207Z,41.99
2018-08-18T12:21:06.143Z,42.19
2018-08-18T12:22:06.083Z,41.23
2018-08-18T12:23:06.007Z,40.80
2018-08-18T12:24:05.944Z,39.82
2018-08-18T12:25:05.882Z,39.72
2018-08-18T12:26:05.821Z,40.97
2018-08-18T12:27:05.746Z,39.72
2018-08-18T12:28:05.683Z,39.00
2018-08-18T12:29:05.620Z,38.23
2018-08-18T12:30:05.592Z,37.38
2018-08-18T12:31:05.497Z,36.98
2018-08-18T12:32:05.420Z,36.32
2018-08-18T12:33:05.358Z,36.44
2018-08-18T12:34:05.296Z,36.40
2018-08-18T12:35:05.234Z,37.74
2018-08-18T12:36:05.199Z,37.69
2018-08-18T12:37:05.169Z,38.73
2018-08-18T12:38:05.034Z,39.74
2018-08-18T12:39:04.985Z,38.80
2018-08-18T12:40:04.912Z,38.51
2018-08-18T12:41:04.847Z,39.07
2018-08-18T12:42:04.784Z,39.62
2018-08-18T12:43:04.709Z,41.41
2018-08-18T12:44:04.646Z,43.68
2018-08-18T12:45:04.584Z,45.22
2018-08-18T12:46:04.522Z,46.32
2018-08-18T12:47:04.451Z,47.17
2018-08-18T12:48:04.385Z,48.39
2018-08-18T12:49:04.341Z,49.37
2018-08-18T12:50:04.364Z,49.46
2018-08-18T12:51:04.185Z,49.56